Bukit Timah, Singapore
Current Conditions -  °F | °C
As of 8:00 PM on Wednesday 22 Oct 2014 (Local Time) from WSSL Reporting Station
Broken Clouds Broken Clouds  
Wind Chill: 81°   Ceiling: 30000
Heat Index: 85°   Visibility: 6mi
Dew Point: 73°   Wind: 0mph
Humidity: 79%   Direction: NA
Pressure: 29.85"   Gusts: NA
Location:  1.36°N, 103.72°E
Report Text: WSSL 221200Z 00000KT 9000 FEW018 SCT150 BKN300 27/23 Q1011 RMK1130Z Q1011
Loading
Personal Weather Stations






























Interactive Weather Map
Tropical Storm Tracking
New forecast layout! Learn more

10-Day Weather Forecast

Advertisements
Track Severe Weather on mobile